OPA Logo
 

ASOS: KRDM
At:2017.03.30 0608 UTC
Wind:300° @ 7KT
Viz: 6 mile(s)
Sky: overcast
Temp: light rain
DewP: 0.02 inches
RH: 44.1 F (6.7 C)
Baro: 44.1 F (6.7 C)
ob: KRDM 300608Z AUTO 30007KT 6SM -RA BKN024 OVC032 07/03 A2995 RMK AO2 P0002 T00670033
Apache-SSL Logo

Valid HTML 4.01!

Central Oregon OPA Chapter

Sectional Charts


If you want to download the latest sectionals you can get them for free directly from FAAjust click on 'Free Digital Products'.

CF -16, Idaoha, Oregon, Washington WAC chart - 14 Jan 2010 North , South

Klamath Sectional 83 - 23 Sep 2010 North , South

San Francisco Sectional 76 - 16 Mar 2006 60MB ZIP

San Francisco Terminal Area Charts 68 - 16 Mar 2006 27MB ZIP

Seattle Sectional 79 - 3 Jun 2010 North , South , Terminal Area Chart 74 , VFR Flyways 74 ,

Seattle Terminal Area Charts 65 - 22 Dec 2005 23MB ZIP

Approach Plates


If you want to download the latest approach plates you can get them directly from NACO.

Take Off Minimums - 11 May 2006 PDF

Alternate Minimums - 11 May 2006 PDF

Bend RNAV RWY 16 - 11 May 2006 PDF

Bend VOR/DME RWY 16 - 11 May 2006 PDF

Redmond ILS 22 - 11 May 2006 PDF

Redmond RNAV 28 - 11 May 2006 PDF

Redmond VOR/DME 22 - 11 May 2006 PDF

Redmond VOR A - 11 May 2006 PDF

Redmond NDB/GPS 22 - 11 May 2006 PDF

Redmond GPS 10 - 11 May 2006 PDF

Redmond Airport Diagram - 11 May 2006 PDF


Web page by: gem@rellim.com